CheckWX is a tool to help pilots better visualize weather data.  It is not intended as a substitute for an official pre-flight weather briefing.

04:16:17 UTC

KBJJ METAR
Wayne County Airport
Wooster, Ohio, USA
Current

20 mins ago

KBJJ 190356Z AUTO 27018G27KT 7SM -SN BKN016 OVC022 01/M02 A2976 RMK AO2 PK WND 28031/0337 UPB37E46SNB46 SLP087 P0000 T00061022
Observed
Jan-19 @ 03:56 UTC
Wind
  • 270° at 18 KTS
  • Gusting to 27 KTS
Visibility
7 SM
Flight Rules
MVFR
Conditions
Light Snow
Cloud Levels
  • Broken at 1,600' AGL
  • Overcast at 2,200' AGL
Temperature
C / 34°F
Dewpoint
-2°C / 28°F
Humidity
81%
Altimeter
29.76" Hg
Pressure
1007.82 hPa
Current Rain
0.01"
Previous

33 mins ago

KBJJ 190343Z AUTO 28015G31KT 10SM UP BKN018 BKN025 OVC038 01/M02 A2975 RMK AO2 PK WND 28031/0337 UPB37 P0000 T00111022
Observed
Jan-19 @ 03:43 UTC
Wind
  • 280° at 15 KTS
  • Gusting to 31 KTS
Visibility
10 SM
Flight Rules
MVFR
Conditions
Unknown precipitation
Cloud Levels
  • Broken at 1,800' AGL
  • Broken at 2,500' AGL
  • Overcast at 3,800' AGL
Temperature
C / 34°F
Dewpoint
-2°C / 28°F
Humidity
81%
Altimeter
29.75" Hg
Pressure
1007.42 hPa
Current Rain
0.01"
Previous

50 mins ago

KBJJ 190326Z AUTO 27015G24KT 10SM FEW022 SCT029 OVC038 02/M02 A2974 RMK AO2 T00171022
Observed
Jan-19 @ 03:26 UTC
Wind
  • 270° at 15 KTS
  • Gusting to 24 KTS
Visibility
10 SM
Flight Rules
VFR
Cloud Levels
  • Few at 2,200' AGL
  • Scattered at 2,900' AGL
  • Overcast at 3,800' AGL
Temperature
C / 36°F
Dewpoint
-2°C / 28°F
Humidity
75%
Altimeter
29.74" Hg
Pressure
1007.12 hPa